^^
Datos históricos de la estación: Murcia-Puente Tocinos
Diario Informe para Enero 1, 2019 Unidades:  Ingés    Métrico   Ambas
Diario Semanal Mensual Anual
  Máxima: Mínima: Promedio:
Temperatura: 67.5 °F 38.5 °F 50.7 °F
Punto de rocio: 46.6 °F 32.4 °F 37 °F
Humedad: 84% 31% 62%
Velocidad viento: 6.4mph 0mph 4.2mph
Racha viento: 9.2mph - -
Viento- - SSO
Presión: 30.4 in 30.3 in -
Precipitación: 0 in    
 
 
Tabla de datos para Enero 1, 2019
Hora Temperatura Punto de rocio Presión Viento Velocidad viento Racha viento Humedad Intensidad lluvia(por hora) Nubes
00:04 47.3 °F 36.9 °F 30.4 in Sur 4.7 mph 8.1 mph 67% 0 in
00:09 47.1 °F 36.7 °F 30.4 in Sur 5.2 mph 8.1 mph 67% 0 in
00:14 47.1 °F 36.7 °F 30.4 in Sur 5.4 mph 8.1 mph 67% 0 in
00:19 46.9 °F 36.5 °F 30.4 in Sur 5.4 mph 8.1 mph 67% 0 in
00:24 46.9 °F 36.5 °F 30.4 in SSO 5.4 mph 8 mph 67% 0 in
00:29 47.1 °F 36.3 °F 30.4 in SSO 5.3 mph 8.1 mph 66.1% 0 in
00:34 47.1 °F 36.3 °F 30.4 in SSO 5.2 mph 8.1 mph 66% 0 in
00:39 47.1 °F 36.3 °F 30.4 in Sur 5.2 mph 8 mph 66.1% 0 in
00:44 46.9 °F 36.5 °F 30.4 in Sur 5.2 mph 7 mph 67% 0 in
00:49 46.6 °F 36.7 °F 30.4 in SSO 5.2 mph 7.6 mph 68% 0 in
00:54 46.2 °F 36.3 °F 30.4 in SSO 5.2 mph 8.1 mph 68% 0 in
00:59 46 °F 36.1 °F 30.4 in Sur 4.8 mph 7 mph 68% 0 in
01:04 46 °F 35.8 °F 30.4 in Sur 4.7 mph 6.4 mph 67.1% 0 in
01:09 45.9 °F 35.6 °F 30.4 in Sur 4.7 mph 7.4 mph 67% 0 in
01:14 45.9 °F 35.4 °F 30.4 in Sur 4.7 mph 7 mph 67% 0 in
01:19 45.7 °F 35.8 °F 30.4 in Sur 4.2 mph 6 mph 67.9% 0 in
01:24 45.5 °F 35.6 °F 30.4 in SSE 4 mph 6 mph 68% 0 in
01:29 45.1 °F 35.6 °F 30.4 in SSE 4 mph 6 mph 68.7% 0 in
01:34 45 °F 35.8 °F 30.4 in SSE 4 mph 7.4 mph 69.8% 0 in
01:39 44.8 °F 35.6 °F 30.4 in SSE 4.2 mph 7 mph 70.4% 0 in
01:44 44.2 °F 35.6 °F 30.4 in Sur 4.3 mph 7 mph 71% 0 in
01:49 44.2 °F 35.6 °F 30.4 in Sur 4.9 mph 7 mph 71.7% 0 in
01:54 44.1 °F 35.6 °F 30.4 in Sur 5.2 mph 7.4 mph 72% 0 in
01:59 44.2 °F 35.8 °F 30.4 in Sur 5.2 mph 7.4 mph 72% 0 in
02:04 44.2 °F 35.8 °F 30.4 in Sur 5.2 mph 7.4 mph 71.8% 0 in
02:09 44.1 °F 35.6 °F 30.4 in Sur 5.2 mph 8.1 mph 72% 0 in
02:14 44.1 °F 35.6 °F 30.4 in Sur 5.2 mph 8 mph 72% 0 in
02:19 43.9 °F 35.8 °F 30.4 in Sur 4.7 mph 7 mph 72.8% 0 in
02:24 43.9 °F 35.8 °F 30.4 in Sur 4.3 mph 7.4 mph 73% 0 in
02:29 43.7 °F 35.6 °F 30.4 in Sur 4.3 mph 7.4 mph 73% 0 in
02:34 43.7 °F 35.6 °F 30.4 in Sur 4.3 mph 7 mph 73% 0 in
02:39 43.5 °F 35.4 °F 30.4 in Sur 4.6 mph 7 mph 73% 0 in
02:44 43.5 °F 35.4 °F 30.4 in Sur 4.7 mph 7.4 mph 73.2% 0 in
02:49 43.5 °F 35.8 °F 30.4 in Sur 4.7 mph 7 mph 74% 0 in
02:54 43.3 °F 35.6 °F 30.4 in Sur 4.7 mph 8.7 mph 74% 0 in
02:59 43.3 °F 35.4 °F 30.4 in Sur 5 mph 9.2 mph 73.2% 0 in
03:04 43.3 °F 35.2 °F 30.4 in Sur 5.2 mph 9 mph 73% 0 in
03:09 43.3 °F 35.2 °F 30.4 in Sur 5.8 mph 8.1 mph 73% 0 in
03:14 43.2 °F 35.1 °F 30.4 in Sur 6.2 mph 7 mph 73% 0 in
03:19 43.2 °F 35.1 °F 30.4 in Sur 5.2 mph 7 mph 73% 0 in
03:24 43 °F 34.9 °F 30.4 in Sur 4.7 mph 7.4 mph 73% 0 in
03:29 42.8 °F 35.1 °F 30.4 in SSO 5 mph 7.4 mph 73.9% 0 in
03:34 42.8 °F 35.1 °F 30.4 in SSO 5.2 mph 7.4 mph 74% 0 in
03:39 42.8 °F 35.1 °F 30.4 in Sur 5.2 mph 7 mph 74% 0 in
03:44 42.8 °F 34.9 °F 30.4 in Sur 5.2 mph 7 mph 73.2% 0 in
03:49 42.8 °F 34.7 °F 30.4 in SSO 5.2 mph 8 mph 73% 0 in
03:54 42.6 °F 34.5 °F 30.4 in SSO 5.2 mph 8.1 mph 73% 0 in
03:59 42.6 °F 34.5 °F 30.4 in SO 5.2 mph 8 mph 72.8% 0 in
04:04 42.6 °F 34.5 °F 30.4 in SSO 5.2 mph 7 mph 73% 0 in
04:09 42.6 °F 34.5 °F 30.4 in SSO 4.4 mph 6 mph 73% 0 in
04:14 42.6 °F 34.5 °F 30.4 in Sur 4 mph 6.2 mph 73% 0 in
04:19 42.4 °F 34.5 °F 30.4 in Sur 4 mph 7.4 mph 73% 0 in
04:24 42.4 °F 34.3 °F 30.4 in Sur 4 mph 7 mph 73% 0 in
04:29 42.3 °F 34.5 °F 30.4 in Sur 4.2 mph 7 mph 74% 0 in
04:34 42.1 °F 34.3 °F 30.4 in SSO 4.3 mph 6 mph 73.9% 0 in
04:39 42.1 °F 34.2 °F 30.4 in Sur 3.9 mph 6.2 mph 73.3% 0 in
04:44 41.9 °F 34.3 °F 30.4 in Sur 3.6 mph 6.2 mph 74% 0 in
04:49 41.7 °F 34 °F 30.4 in Sur 3.9 mph 6.9 mph 74% 0 in
04:54 41.7 °F 34 °F 30.4 in SSO 4 mph 7 mph 74% 0 in
04:59 41.7 °F 34 °F 30.4 in SSO 4.2 mph 7 mph 74% 0 in
05:04 41.7 °F 34 °F 30.4 in SO 4.3 mph 6.9 mph 73.9% 0 in
05:09 41.9 °F 34 °F 30.4 in SO 4.3 mph 7 mph 73% 0 in
05:14 42.1 °F 33.8 °F 30.4 in SO 4.3 mph 6 mph 72.4% 0 in
05:19 42.3 °F 34 °F 30.4 in SO 3.9 mph 6 mph 72% 0 in
05:24 42.3 °F 34 °F 30.4 in SO 3.6 mph 6.9 mph 72% 0 in
05:29 42.3 °F 34 °F 30.4 in Sur 3.6 mph 7 mph 72% 0 in
05:34 42.3 °F 33.8 °F 30.4 in Sur 3.6 mph 6 mph 72% 0 in
05:39 42.1 °F 34 °F 30.4 in Sur 3.6 mph 6 mph 73% 0 in
05:44 41.7 °F 33.8 °F 30.4 in Sur 3.6 mph 6.2 mph 73% 0 in
05:49 41.5 °F 33.8 °F 30.4 in Sur 3.9 mph 7.4 mph 73.6% 0 in
05:54 41.4 °F 33.8 °F 30.4 in Sur 4 mph 7 mph 74% 0 in
05:59 41 °F 33.6 °F 30.4 in SSE 4.2 mph 6.2 mph 74.7% 0 in
06:04 40.5 °F 33.3 °F 30.4 in Sur 4.3 mph 7.4 mph 75.4% 0 in
06:09 39.7 °F 33.1 °F 30.4 in Sur 4.9 mph 7.4 mph 76.7% 0 in
06:14 39.6 °F 33.1 °F 30.4 in SSE 5.2 mph 8.1 mph 77.8% 0 in
06:19 39 °F 32.9 °F 30.4 in SSE 5.3 mph 9.2 mph 78.4% 0 in
06:24 38.7 °F 32.9 °F 30.4 in Sur 5.4 mph 9 mph 79.6% 0 in
06:29 38.7 °F 32.9 °F 30.4 in SSE 5.7 mph 9 mph 80% 0 in
06:34 38.5 °F 32.7 °F 30.4 in Sur 5.9 mph 9 mph 80% 0 in
06:39 38.7 °F 32.9 °F 30.4 in Sur 5.6 mph 8 mph 80% 0 in
06:44 38.7 °F 33.1 °F 30.4 in SSO 5.4 mph 7 mph 80% 0 in
06:49 39 °F 33.3 °F 30.4 in SSO 4.7 mph 6.9 mph 79.5% 0 in
06:54 39.4 °F 33.3 °F 30.4 in SSO 4.3 mph 7 mph 78.5% 0 in
06:59 39.7 °F 33.1 °F 30.4 in SSO 4.6 mph 7 mph 77.3% 0 in
07:04 39.9 °F 33.3 °F 30.4 in SSO 4.7 mph 7 mph 77% 0 in
07:09 39.9 °F 33.1 °F 30.4 in SSO 4.3 mph 6.9 mph 76% 0 in
07:14 40.1 °F 33.1 °F 30.4 in Sur 4 mph 7 mph 76% 0 in
07:19 40.1 °F 33.1 °F 30.4 in Sur 4.2 mph 7.4 mph 75.9% 0 in
07:24 40.3 °F 33.1 °F 30.4 in Sur 4.3 mph 8.1 mph 75% 0 in
07:29 40.3 °F 33.1 °F 30.4 in Sur 4.9 mph 8 mph 75% 0 in
07:34 40.3 °F 32.9 °F 30.4 in Sur 5.2 mph 7.4 mph 75% 0 in
07:39 40.1 °F 32.9 °F 30.4 in Sur 4.9 mph 7 mph 75% 0 in
07:44 40.1 °F 32.9 °F 30.4 in Sur 4.7 mph 7 mph 75% 0 in
07:49 40.3 °F 32.9 °F 30.4 in Sur 4.7 mph 7 mph 75% 0 in
07:54 40.3 °F 32.9 °F 30.4 in Sur 4.7 mph 7 mph 75% 0 in
07:59 40.1 °F 32.7 °F 30.4 in Sur 4.7 mph 7 mph 75% 0 in
08:04 39.9 °F 33.1 °F 30.4 in Sur 4.7 mph 7 mph 76% 0 in
08:09 39.9 °F 33.1 °F 30.4 in SSO 4 mph 6 mph 76% 0 in
08:14 39.7 °F 32.7 °F 30.4 in SSO 3.6 mph 5.9 mph 76% 0 in
08:19 39.7 °F 32.7 °F 30.4 in SSO 3.9 mph 7.4 mph 76% 0 in
08:24 39.9 °F 32.9 °F 30.4 in SSO 4 mph 8.5 mph 76% 0 in
08:29 39.9 °F 32.5 °F 30.4 in SSO 4.5 mph 9 mph 75% 0 in
08:34 39.9 °F 32.5 °F 30.4 in Sur 4.7 mph 9 mph 75% 0 in
08:39 39.9 °F 32.5 °F 30.4 in Sur 5 mph 8.1 mph 75% 0 in
08:44 39.7 °F 32.7 °F 30.4 in SSO 5.2 mph 8.5 mph 75.8% 0 in
08:49 39.6 °F 32.5 °F 30.4 in SSO 5.7 mph 9 mph 76% 0 in
08:54 39.7 °F 32.5 °F 30.4 in SSO 5.9 mph 8 mph 75.5% 0 in
08:59 39.9 °F 32.4 °F 30.4 in SSO 4.8 mph 8.1 mph 74.6% 0 in
09:04 40.1 °F 32.4 °F 30.4 in SSO 4.3 mph 8.1 mph 73.8% 0 in
09:09 40.3 °F 32.4 °F 30.4 in SSO 4.5 mph 7 mph 73% 0 in
09:14 40.5 °F 32.4 °F 30.4 in SSO 4.7 mph 5.8 mph 72.4% 0 in
09:19 40.6 °F 32.4 °F 30.4 in SSO 4 mph 8.1 mph 71.8% 0 in
09:24 41 °F 32.4 °F 30.4 in SSO 3.6 mph 8 mph 71% 0 in
09:29 41.4 °F 32.4 °F 30.4 in SSO 4 mph 8 mph 70.1% 0 in
09:34 41.5 °F 32.4 °F 30.4 in SSO 4.3 mph 7 mph 69.5% 0 in
09:39 42.1 °F 32.5 °F 30.4 in SSO 3.9 mph 6 mph 69% 0 in
09:44 42.4 °F 32.7 °F 30.4 in Sur 3.6 mph 6.2 mph 68.4% 0 in
09:49 42.4 °F 32.7 °F 30.4 in SSO 3.9 mph 6.9 mph 68% 0 in
09:54 42.4 °F 32.5 °F 30.4 in SSO 4 mph 8.1 mph 67.8% 0 in
09:59 42.6 °F 32.5 °F 30.4 in SSO 4.5 mph 8.1 mph 67.3% 0 in
10:04 43 °F 32.7 °F 30.4 in SO 4.7 mph 8 mph 66.7% 0 in
10:09 43.3 °F 32.7 °F 30.4 in SO 4.5 mph 8.1 mph 66% 0 in
10:14 43.5 °F 32.7 °F 30.4 in SO 4.3 mph 8.7 mph 65.7% 0 in
10:19 43.9 °F 32.7 °F 30.4 in SO 4.9 mph 9 mph 64.8% 0 in
10:24 44.2 °F 32.5 °F 30.4 in SO 5.2 mph 8.5 mph 63% 0 in
10:29 45 °F 32.4 °F 30.4 in SO 4.9 mph 9 mph 61.5% 0 in
10:34 45.3 °F 32.5 °F 30.4 in SO 4.7 mph 7 mph 60.9% 0 in
10:39 45.9 °F 32.7 °F 30.4 in SO 4.2 mph 6 mph 60.1% 0 in
10:44 46.2 °F 32.7 °F 30.4 in SSO 4 mph 6.2 mph 59.4% 0 in
10:49 46.6 °F 32.7 °F 30.4 in SSO 3.7 mph 7.4 mph 58.1% 0 in
10:54 46.8 °F 32.7 °F 30.4 in SO 3.6 mph 7 mph 57.9% 0 in
10:59 47.1 °F 32.9 °F 30.4 in SSO 4.1 mph 7 mph 57.6% 0 in
11:04 47.7 °F 32.9 °F 30.4 in SSO 4.3 mph 7 mph 56.3% 0 in
11:09 48.2 °F 33.1 °F 30.4 in SSO 4.1 mph 6.9 mph 55.7% 0 in
11:14 48.6 °F 33.3 °F 30.4 in SSO 4 mph 7 mph 55.3% 0 in
11:19 48.9 °F 33.3 °F 30.4 in SSO 4.2 mph 7.4 mph 54.9% 0 in
11:24 49.1 °F 33.6 °F 30.4 in SSO 4.3 mph 7 mph 55% 0 in
11:29 49.5 °F 33.6 °F 30.4 in SO 4.5 mph 7 mph 54.4% 0 in
11:34 49.6 °F 33.8 °F 30.4 in SSO 4.7 mph 8.1 mph 54.2% 0 in
11:39 49.8 °F 33.8 °F 30.4 in SO 4.5 mph 8 mph 54.1% 0 in
11:44 50.2 °F 34.2 °F 30.4 in SSO 4.3 mph 7 mph 54% 0 in
11:49 50.7 °F 34.5 °F 30.4 in SO 3.5 mph 6 mph 53.6% 0 in
11:54 51.3 °F 34.7 °F 30.4 in SSO 3.1 mph 6.9 mph 53% 0 in
11:59 51.6 °F 34.5 °F 30.4 in SO 3.7 mph 7 mph 51.8% 0 in
12:04 52 °F 34 °F 30.4 in SSO 4 mph 7 mph 50.3% 0 in
12:09 52.3 °F 34.2 °F 30.4 in SO 4 mph 6.2 mph 49.8% 0 in
12:14 52.9 °F 34.2 °F 30.4 in SSO 4 mph 6.4 mph 48.9% 0 in
12:19 53.2 °F 34.2 °F 30.4 in SSO 3.7 mph 8.1 mph 48.1% 0 in
12:24 53.4 °F 33.6 °F 30.4 in SSO 3.6 mph 8.1 mph 46.6% 0 in
12:29 54 °F 33.8 °F 30.4 in SSO 4.3 mph 8.1 mph 46.2% 0 in
12:34 54.3 °F 33.4 °F 30.4 in SSO 4.7 mph 9.2 mph 45% 0 in
12:39 54.9 °F 33.4 °F 30.4 in SO 5.2 mph 9 mph 44.4% 0 in
12:44 55 °F 34.2 °F 30.4 in SSO 5.4 mph 8 mph 45.1% 0 in
12:49 55.6 °F 34.7 °F 30.4 in SSO 4.7 mph 7 mph 45.1% 0 in
12:54 56.1 °F 35.2 °F 30.4 in SSO 4.3 mph 6.9 mph 45.2% 0 in
12:59 56.7 °F 35.2 °F 30.4 in Sur 4.1 mph 8.5 mph 44.7% 0 in
13:04 57 °F 34.9 °F 30.4 in SSO 4 mph 9 mph 43.4% 0 in
13:09 57.4 °F 34.7 °F 30.4 in SSO 4.5 mph 8.5 mph 42.5% 0 in
13:14 57.6 °F 34.5 °F 30.4 in SSO 4.7 mph 9 mph 42% 0 in
13:19 57.7 °F 34.3 °F 30.4 in SSO 4.7 mph 7.6 mph 41.2% 0 in
13:24 58.3 °F 33.8 °F 30.4 in SSO 4.7 mph 8.1 mph 39.7% 0 in
13:29 58.6 °F 33.4 °F 30.4 in SSO 5 mph 8.1 mph 38.5% 0 in
13:34 59.2 °F 33.6 °F 30.4 in SSO 5.2 mph 8.5 mph 38% 0 in
13:39 59.5 °F 33.8 °F 30.4 in SO 5.2 mph 9 mph 38% 0 in
13:44 59.7 °F 34.2 °F 30.4 in SSO 5.2 mph 8.1 mph 38% 0 in
13:49 60.3 °F 34.2 °F 30.4 in OSO 4.5 mph 8.1 mph 37.4% 0 in
13:54 60.6 °F 34 °F 30.4 in SO 4 mph 8.1 mph 36.7% 0 in
13:59 60.8 °F 34.3 °F 30.4 in OSO 4.5 mph 8.1 mph 36.9% 0 in
14:04 61.2 °F 33.8 °F 30.4 in SO 4.7 mph 8.1 mph 35.8% 0 in
14:09 61.2 °F 34 °F 30.4 in SO 5 mph 8 mph 36% 0 in
14:14 61.5 °F 33.6 °F 30.4 in SO 5.2 mph 8.1 mph 35.1% 0 in
14:19 61.9 °F 33.6 °F 30.4 in Sur 4.6 mph 8 mph 34.7% 0 in
14:24 62.1 °F 33.4 °F 30.4 in SSO 4.3 mph 7 mph 34% 0 in
14:29 62.4 °F 33.1 °F 30.4 in SSO 4.1 mph 7 mph 33.3% 0 in
14:34 62.8 °F 32.5 °F 30.4 in SO 4 mph 6 mph 32.1% 0 in
14:39 63.1 °F 32.7 °F 30.4 in SSO 3.8 mph 6.9 mph 32% 0 in
14:44 63.3 °F 32.9 °F 30.4 in OSO 3.6 mph 7 mph 32% 0 in
14:49 63.5 °F 33.1 °F 30.4 in SSO 3.6 mph 6 mph 32% 0 in
14:54 63.9 °F 33.4 °F 30.3 in SSO 3.6 mph 7.4 mph 32% 0 in
14:59 64 °F 33.6 °F 30.3 in Sur 3.6 mph 7 mph 32% 0 in
15:04 64.2 °F 33.8 °F 30.3 in SO 3.6 mph 6 mph 32% 0 in
15:09 64.6 °F 34 °F 30.3 in OSO 3.2 mph 6.9 mph 31.9% 0 in
15:14 64.8 °F 33.4 °F 30.3 in OSO 2.9 mph 7 mph 31% 0 in
15:19 64.8 °F 33.4 °F 30.3 in SO 3.6 mph 7 mph 31% 0 in
15:24 64.8 °F 33.6 °F 30.3 in SO 4 mph 7 mph 31.2% 0 in
15:29 64.9 °F 34 °F 30.3 in SO 4.2 mph 7 mph 31.6% 0 in
15:34 64.9 °F 34.3 °F 30.3 in SO 4.3 mph 6.9 mph 32% 0 in
15:39 65.1 °F 34.5 °F 30.3 in SSO 4.1 mph 7 mph 32.1% 0 in
15:44 65.5 °F 35.2 °F 30.3 in SSO 4 mph 6.9 mph 32.7% 0 in
15:49 65.7 °F 35.1 °F 30.3 in SO 3.8 mph 7.4 mph 32% 0 in
15:54 65.8 °F 35.6 °F 30.3 in SSO 3.6 mph 7 mph 32.7% 0 in
15:59 65.8 °F 36 °F 30.3 in Sur 3.9 mph 6 mph 33% 0 in
16:04 66 °F 36.1 °F 30.3 in Sur 4 mph 6 mph 33% 0 in
16:09 66.4 °F 36.3 °F 30.3 in SSO 3 mph 5 mph 33% 0 in
16:14 66.6 °F 36.3 °F 30.3 in SO 2.4 mph 5 mph 32.6% 0 in
16:19 66.6 °F 36.5 °F 30.3 in SO 2.8 mph 5.9 mph 33% 0 in
16:24 66.7 °F 36.7 °F 30.3 in SO 3.1 mph 6.2 mph 33.1% 0 in
16:29 66.6 °F 36.9 °F 30.3 in SO 3.7 mph 6 mph 33.3% 0 in
16:34 66.7 °F 37.6 °F 30.3 in SO 4 mph 6 mph 34% 0 in
16:39 66.7 °F 37.6 °F 30.3 in SSO 3.8 mph 6 mph 34% 0 in
16:44 66.9 °F 37.6 °F 30.3 in SSO 3.6 mph 6.2 mph 34% 0 in
16:49 66.9 °F 37.6 °F 30.3 in SSO 3.9 mph 6 mph 34% 0 in
16:54 66.9 °F 37.9 °F 30.3 in SSO 4 mph 6 mph 34.4% 0 in
16:59 67.3 °F 38.7 °F 30.3 in SSO 2.9 mph 5 mph 34.9% 0 in
17:04 67.5 °F 38.8 °F 30.3 in Sur 2.4 mph 3 mph 35% 0 in
17:09 67.5 °F 38.7 °F 30.3 in Sur 2.2 mph 3.6 mph 34.9% 0 in
17:14 67.5 °F 38.8 °F 30.3 in Sur 2 mph 4 mph 35% 0 in
17:19 67.3 °F 38.7 °F 30.3 in Sur 1.9 mph 3.5 mph 35% 0 in
17:24 67.1 °F 39 °F 30.3 in SSE 1.8 mph 4.6 mph 35.8% 0 in
17:29 66.7 °F 39.9 °F 30.3 in ESE 2.2 mph 5 mph 37.5% 0 in
17:34 66 °F 40.1 °F 30.3 in ESE 2.4 mph 5 mph 38.6% 0 in
17:39 65.7 °F 40.3 °F 30.3 in ESE 2.7 mph 5 mph 39.5% 0 in
17:44 65.3 °F 40.3 °F 30.3 in ESE 2.9 mph 5 mph 40% 0 in
17:49 65.1 °F 40.5 °F 30.3 in ESE 2.3 mph 4.6 mph 40.3% 0 in
17:54 64.9 °F 40.6 °F 30.3 in ESE 2 mph 5 mph 41.1% 0 in
17:59 64.4 °F 40.8 °F 30.3 in ESE 2.3 mph 4 mph 42% 0 in
18:04 64 °F 40.8 °F 30.3 in ESE 2.4 mph 3 mph 42.5% 0 in
18:09 63.9 °F 41 °F 30.3 in ESE 0.9 mph 2 mph 43.2% 0 in
18:14 63.3 °F 41 °F 30.3 in Calm     44% 0 in
18:19 63.1 °F 41.2 °F 30.3 in Calm   3.6 mph 44.6% 0 in
18:24 63 °F 42.1 °F 30.3 in Calm   4.7 mph 46.5% 0 in
18:29 62.6 °F 42.6 °F 30.3 in OSO 2 mph 5.2 mph 47.9% 0 in
18:34 62.1 °F 42.8 °F 30.4 in OSO 3.1 mph 5.2 mph 49% 0 in
18:39 61.5 °F 43 °F 30.4 in OSO 3.1 mph 6.9 mph 50.3% 0 in
18:44 61.2 °F 43.2 °F 30.4 in OSO 3.1 mph 7 mph 51.5% 0 in
18:49 60.6 °F 43.2 °F 30.4 in OSO 3.4 mph 6 mph 52.5% 0 in
18:54 60.3 °F 43.2 °F 30.4 in Oeste 3.6 mph 5.2 mph 53.1% 0 in
18:59 59.9 °F 43.2 °F 30.4 in Oeste 2.5 mph 5 mph 54% 0 in
19:04 59.5 °F 43.3 °F 30.4 in Oeste 2 mph 3 mph 55% 0 in
19:09 59.4 °F 43.5 °F 30.4 in Oeste 0.7 mph 7.4 mph 55.8% 0 in
19:14 59.2 °F 43.5 °F 30.4 in Calm   7 mph 56.2% 0 in
19:19 59 °F 43.7 °F 30.4 in SSO 2 mph 5.8 mph 56.8% 0 in
19:24 58.6 °F 44.1 °F 30.4 in SO 3.1 mph 6.9 mph 58.3% 0 in
19:29 58.5 °F 44.4 °F 30.4 in SO 3.7 mph 7 mph 59.8% 0 in
19:34 58.1 °F 44.8 °F 30.4 in SO 4 mph 7 mph 61.3% 0 in
19:39 57.7 °F 45 °F 30.4 in SO 4 mph 6 mph 62.3% 0 in
19:44 57.6 °F 45.1 °F 30.4 in SO 4 mph 5 mph 63.3% 0 in
19:49 57.4 °F 45.3 °F 30.4 in SO 3.3 mph 5 mph 64.3% 0 in
19:54 57 °F 45.5 °F 30.4 in SO 2.9 mph 6.2 mph 65.2% 0 in
19:59 56.8 °F 46 °F 30.4 in SO 3.4 mph 6.9 mph 66.6% 0 in
20:04 56.8 °F 46.2 °F 30.4 in SO 3.6 mph 7 mph 67.6% 0 in
20:09 56.7 °F 46.4 °F 30.4 in SSO 3.9 mph 6 mph 68.3% 0 in
20:14 56.5 °F 46.4 °F 30.4 in SSO 4 mph 6 mph 69% 0 in
20:19 56.3 °F 46.6 °F 30.4 in SSO 3.5 mph 6 mph 69.9% 0 in
20:24 55.9 °F 46.4 °F 30.4 in Sur 3.1 mph 5.8 mph 70.1% 0 in
20:29 55.8 °F 46.6 °F 30.4 in Sur 3.4 mph 6.2 mph 71.2% 0 in
20:34 55.2 °F 46.6 °F 30.4 in Sur 3.6 mph 6.2 mph 72.3% 0 in
20:39 54.9 °F 46.4 °F 30.4 in SSE 3.9 mph 6 mph 73.1% 0 in
20:44 54.3 °F 46.4 °F 30.4 in SSE 4 mph 6.4 mph 74.5% 0 in
20:49 53.8 °F 46.4 °F 30.4 in SSE 4.2 mph 7.6 mph 75.9% 0 in
20:54 53.2 °F 46.4 °F 30.4 in SSE 4.3 mph 8.1 mph 77.6% 0 in
20:59 52.9 °F 46.4 °F 30.4 in SSE 4.9 mph 8.1 mph 78.6% 0 in
21:04 52.5 °F 46.2 °F 30.4 in SSE 5.2 mph 8 mph 79% 0 in
21:09 52.3 °F 46.2 °F 30.4 in SSE 5.3 mph 9.2 mph 79.5% 0 in
21:14 52.2 °F 46.2 °F 30.4 in Sur 5.4 mph 9 mph 80% 0 in
21:19 52 °F 45.9 °F 30.4 in SSE 6 mph 9.2 mph 80% 0 in
21:24 51.8 °F 45.9 °F 30.4 in SSE 6.4 mph 9.2 mph 80% 0 in
21:29 51.6 °F 45.7 °F 30.4 in Sur 6.1 mph 9 mph 80% 0 in
21:34 51.6 °F 45.9 °F 30.4 in SSO 5.9 mph 8.1 mph 80.4% 0 in
21:39 51.4 °F 45.9 °F 30.4 in Sur 5.5 mph 8.1 mph 81% 0 in
21:44 51.4 °F 45.9 °F 30.4 in Sur 5.2 mph 8 mph 81% 0 in
21:49 51.4 °F 46 °F 30.4 in Sur 4.6 mph 6 mph 81.8% 0 in
21:54 51.3 °F 46 °F 30.4 in SSO 4.3 mph 6 mph 82% 0 in
21:59 51.3 °F 46.2 °F 30.4 in SO 3.9 mph 5.9 mph 82.7% 0 in
22:04 51.3 °F 46.2 °F 30.4 in Sur 3.6 mph 6 mph 83% 0 in
22:09 51.3 °F 46.2 °F 30.4 in SSE 3.6 mph 5 mph 83% 0 in
22:14 51.3 °F 46.2 °F 30.4 in SSE 3.6 mph 5 mph 83% 0 in
22:19 51.1 °F 46 °F 30.4 in SSE 3.2 mph 5.2 mph 83% 0 in
22:24 50.9 °F 45.7 °F 30.4 in SSE 2.9 mph 6.9 mph 82.2% 0 in
22:29 50.7 °F 45.3 °F 30.4 in SSE 3.8 mph 7.4 mph 82% 0 in
22:34 50.5 °F 45.5 °F 30.4 in SSE 4.3 mph 8.1 mph 82.6% 0 in
22:39 50.7 °F 45.7 °F 30.4 in SSE 4.5 mph 8.5 mph 83% 0 in
22:44 50.7 °F 45.7 °F 30.4 in SSE 4.7 mph 9.2 mph 83.1% 0 in
22:49 50.5 °F 46 °F 30.4 in SSE 5.5 mph 9 mph 84% 0 in
22:54 50.4 °F 45.9 °F 30.4 in SSE 5.9 mph 9 mph 84% 0 in
22:59 50.2 °F 45.5 °F 30.4 in Sur 5.9 mph 9 mph 84% 0 in
23:04 49.8 °F 45.1 °F 30.4 in Sur 5.9 mph 9 mph 84% 0 in
23:09 49.6 °F 44.8 °F 30.4 in Sur 5.5 mph 8 mph 83.5% 0 in
23:14 49.3 °F 44.4 °F 30.4 in Sur 5.2 mph 9.2 mph 83% 0 in
23:19 48.9 °F 44.1 °F 30.4 in SSO 5.3 mph 9 mph 83% 0 in
23:24 48.9 °F 43.9 °F 30.4 in SSO 5.4 mph 8.1 mph 83% 0 in
23:29 48.9 °F 43.7 °F 30.4 in SSO 5.7 mph 8.1 mph 82.1% 0 in
23:34 48.9 °F 43.5 °F 30.4 in SSO 5.9 mph 8.1 mph 81.7% 0 in
23:39 48.9 °F 43.2 °F 30.4 in SSO 5.6 mph 8 mph 80.2% 0 in
23:44 49.1 °F 42.6 °F 30.4 in SSO 5.4 mph 7 mph 78.4% 0 in
23:49 49.1 °F 42.3 °F 30.4 in SSO 4.7 mph 7 mph 77.3% 0 in
23:54 49.1 °F 42.3 °F 30.4 in SSO 4.3 mph 7.4 mph 77% 0 in
23:59 49.1 °F 42.1 °F 30.4 in Sur 4.6 mph 7.4 mph 76.5% 0 in
Murcia-Puente Tocinos, Espa?a
Compliments of Weather Underground - 3.25 mb

La estación de MeteoMurcia.com, publica sus datos en los siguientes proyectos:

Weather Underground PWS IMURCIAP2 Meteoclimatic www.awekas.at

W3Counter
Web Analytics